Aérodrome :
LOGIN :

S'inscrire | Disclaimer

   EN    FR    IT 

 










Légende :    VFR   VFR Marginal   IFR   IFR Intensif   IFR Très Intensif
Visi : 
Plafond : 
>= 8 km
>= 3000ft
5 à 8 km
1000 à 3000 ft
1500m à 5 km
500 à 1000 ft
800 à 1500m
200 à 500 ft
< 800m
< 200 ft
Symboles :   Orages  Brouillard  Fortes neiges  Fortes précipitations  Vent > 20 kt
SIGMETs :   Divers  Orages  Givrage  Turbulence  Onde Orograph.  Cendres Volcan.






- Altitude de l'aérodrome : 1299 ft


EDTY - Adolf Würth

DERNIER METAR :
  • 300320Z AUTO 23008KT 4200 // FEW006/// OVC009/// 10/10 Q1021

METARs EXPIRÉS :
  • 300250Z AUTO 23010KT 4000 // SCT008/// BKN011/// OVC015/// 10/10 Q1021
  • 300220Z AUTO 23009KT 9999 // FEW004/// OVC009/// 10/09 Q1021
  • 300150Z AUTO 24008KT 5000 // FEW004/// BKN006/// OVC013/// 10/09 Q1021
  • 300120Z AUTO 23008KT 5000 // BKN005/// BKN012/// OVC014/// 10/09 Q1021
  • 300050Z AUTO 23008KT 9999 // SCT006/// BKN011/// OVC013/// 10/09 Q1021

Prévision TAF périmée.



MET'MAP, la Météo Aéronautique d'un coup d'oeil ! - Copyright ORBIFLY Décembre 2007 - Disclaimer

ORBIFLY MET'MAP TEAM :

Programmation & Développement : Alexandra Zaïnal
Sur une idée originale de : Baudouin d'Aumeries
Assistance à la programmation : Marc-Olivier Méhu
Soutien technique & logistique : Manuel Goepfert

Contact : metmap@orbifly.com




SOURCES & CREDITS :

   NOAA